KELP

El Paso International Airport

El Paso, Texas, USA
METAR KELP 190251Z 18005KT 10SM FEW250 06/M09 A3018 RMK AO2 SLP214 T00611089 52001
Observed Flight Rules
Jan-19 @ 02:51 UTC (54 minutes ago) Visual Flight Rules
Wind Visibility Clouds
180° at 5 knots 10 miles
  • Few at 25,000' AGL
Temperatures Readings
Current 6°C / 43°F
Dewpoint -9°C / 16°F
Humidity 34%
Altimeter 30.18" Hg
Pressure 1021.4 hPa
Elevation 1197
METAR KELP 190251Z 18005KT 10SM FEW250 06/M09 A3018 RMK AO2 SLP214 T00611089 52001
Observed Flight Rules
Jan-19 @ 02:51 UTC
(54 minutes ago)
VFR
Wind Visibility
180° at 5 knots 10 miles
Clouds
  • Few at 25,000' AGL
Temperature Dewpoint
6°C / 43°F -9°C / 16°F
Humidity Altimeter Pressure
34% 30.18" Hg 1021.4 hPa